createdAt,value
2019-02-11T00:01:15.439Z,12.27
2019-02-11T00:03:44.521Z,10.83
2019-02-11T00:06:13.449Z,6.43
2019-02-11T00:08:42.425Z,8.60
2019-02-11T00:11:11.456Z,7.10
2019-02-11T00:13:40.832Z,11.57
2019-02-11T00:16:09.866Z,5.80
2019-02-11T00:18:39.208Z,6.50
2019-02-11T00:21:08.215Z,6.23
2019-02-11T00:23:37.307Z,5.93
2019-02-11T00:26:06.615Z,7.03
2019-02-11T00:28:35.620Z,9.07
2019-02-11T00:31:04.657Z,10.53
2019-02-11T00:33:33.591Z,8.73
2019-02-11T00:36:02.591Z,8.73
2019-02-11T00:38:31.987Z,8.23
2019-02-11T00:41:01.015Z,17.67
2019-02-11T00:43:30.490Z,19.40
2019-02-11T00:45:59.460Z,11.07
2019-02-11T00:48:28.495Z,9.53
2019-02-11T00:50:57.495Z,9.97
2019-02-11T00:53:26.583Z,7.90
2019-02-11T00:55:55.622Z,12.30
2019-02-11T00:58:24.623Z,10.50
2019-02-11T01:00:53.664Z,12.70
2019-02-11T01:03:22.635Z,8.03
2019-02-11T01:05:51.693Z,12.50
2019-02-11T01:08:20.701Z,11.30
2019-02-11T01:10:49.754Z,15.60
2019-02-11T01:13:27.238Z,11.03
2019-02-11T01:15:50.139Z,21.50
2019-02-11T01:18:19.190Z,8.73
2019-02-11T01:20:48.266Z,18.03
2019-02-11T01:23:17.249Z,9.13
2019-02-11T01:25:46.257Z,11.13
2019-02-11T01:28:15.226Z,12.67
2019-02-11T01:30:44.282Z,13.63
2019-02-11T01:33:13.338Z,10.03
2019-02-11T01:35:42.393Z,18.80
2019-02-11T01:38:11.452Z,18.17
2019-02-11T01:40:40.759Z,18.93
2019-02-11T01:43:09.817Z,10.90
2019-02-11T01:45:38.872Z,15.10
2019-02-11T01:48:08.217Z,19.50
2019-02-11T01:50:37.145Z,13.83
2019-02-11T01:53:06.215Z,12.73
2019-02-11T01:55:35.317Z,14.47
2019-02-11T01:58:04.194Z,23.17
2019-02-11T02:00:33.243Z,10.30
2019-02-11T02:03:02.483Z,9.50
2019-02-11T02:05:32.964Z,13.93
2019-02-11T02:08:02.324Z,13.50
2019-02-11T02:10:31.357Z,9.60
2019-02-11T02:13:00.417Z,11.23
2019-02-11T02:15:29.410Z,16.93
2019-02-11T02:17:58.419Z,14.30
2019-02-11T02:20:27.404Z,13.50
2019-02-11T02:22:56.411Z,9.97
2019-02-11T02:25:25.424Z,16.03
2019-02-11T02:27:54.470Z,10.37
2019-02-11T02:30:23.529Z,11.60
2019-02-11T02:32:52.505Z,9.70
2019-02-11T02:35:21.511Z,14.43
2019-02-11T02:37:50.517Z,20.83
2019-02-11T02:40:19.575Z,14.17
2019-02-11T02:42:48.846Z,18.73
2019-02-11T02:45:17.865Z,10.63
2019-02-11T02:47:47.227Z,15.13
2019-02-11T02:50:16.232Z,11.63
2019-02-11T02:52:45.163Z,21.97
2019-02-11T02:55:14.218Z,37.57
2019-02-11T02:57:43.225Z,17.20
2019-02-11T03:00:12.395Z,15.83
2019-02-11T03:02:41.374Z,18.70
2019-02-11T03:05:10.398Z,17.33
2019-02-11T03:07:39.402Z,15.73
2019-02-11T03:10:08.691Z,17.67
2019-02-11T03:12:37.721Z,13.97
2019-02-11T03:15:07.618Z,20.10
2019-02-11T03:17:36.637Z,12.53
2019-02-11T03:20:06.420Z,13.43
2019-02-11T03:22:35.433Z,21.60
2019-02-11T03:25:04.787Z,16.03
2019-02-11T03:27:34.193Z,18.73
2019-02-11T03:30:03.202Z,13.20
2019-02-11T03:32:32.218Z,12.63
2019-02-11T03:35:01.193Z,12.40
2019-02-11T03:37:30.496Z,15.90
2019-02-11T03:39:59.541Z,17.23
2019-02-11T03:42:28.591Z,15.40
2019-02-11T03:44:57.635Z,15.63
2019-02-11T03:47:26.645Z,21.53
2019-02-11T03:49:55.708Z,17.67
2019-02-11T03:52:25.024Z,17.53
2019-02-11T03:54:54.130Z,16.73
2019-02-11T03:57:23.123Z,13.70
2019-02-11T03:59:52.400Z,18.10
2019-02-11T04:02:21.446Z,15.50
2019-02-11T04:04:50.458Z,16.10
2019-02-11T04:07:19.504Z,19.03
2019-02-11T04:09:48.511Z,21.83
2019-02-11T04:12:17.558Z,12.33
2019-02-11T04:14:46.620Z,18.00
2019-02-11T04:17:15.623Z,22.80
2019-02-11T04:19:44.627Z,25.87
2019-02-11T04:22:13.691Z,11.40
2019-02-11T04:24:43.002Z,20.57
2019-02-11T04:27:11.987Z,19.93
2019-02-11T04:29:41.017Z,16.30
2019-02-11T04:32:10.104Z,11.70
2019-02-11T04:34:39.125Z,15.43
2019-02-11T04:37:08.409Z,25.73
2019-02-11T04:39:37.446Z,28.40
2019-02-11T04:42:06.450Z,22.50
2019-02-11T04:44:35.715Z,21.27
2019-02-11T04:47:04.778Z,16.57
2019-02-11T04:49:33.806Z,18.90
2019-02-11T04:52:03.174Z,36.67
2019-02-11T04:54:32.611Z,18.00
2019-02-11T04:57:01.835Z,16.50
2019-02-11T04:59:30.848Z,21.43
2019-02-11T05:01:59.924Z,17.50
2019-02-11T05:04:28.939Z,21.30
2019-02-11T05:06:57.960Z,21.93
2019-02-11T05:09:27.011Z,18.63
2019-02-11T05:11:56.039Z,18.07
2019-02-11T05:14:25.091Z,26.93
2019-02-11T05:16:54.107Z,20.97
2019-02-11T05:19:23.146Z,20.27
2019-02-11T05:21:52.164Z,28.40
2019-02-11T05:24:21.114Z,26.83
2019-02-11T05:26:50.029Z,21.30
2019-02-11T05:29:19.418Z,14.43
2019-02-11T05:31:48.804Z,29.73
2019-02-11T05:34:17.854Z,21.60
2019-02-11T05:36:46.865Z,18.97
2019-02-11T05:39:15.927Z,22.60
2019-02-11T05:41:44.956Z,27.43
2019-02-11T05:44:14.028Z,23.00
2019-02-11T05:46:42.966Z,24.73
2019-02-11T05:49:12.079Z,31.93
2019-02-11T05:51:41.098Z,28.90
2019-02-11T05:54:10.107Z,25.07
2019-02-11T05:56:39.175Z,26.77
2019-02-11T05:59:08.143Z,21.73
2019-02-11T06:01:37.190Z,18.87
2019-02-11T06:04:06.215Z,19.67
2019-02-11T06:06:35.254Z,21.30
2019-02-11T06:09:05.445Z,28.87
2019-02-11T06:11:34.497Z,24.87
2019-02-11T06:14:03.574Z,23.43
2019-02-11T06:16:32.589Z,20.07
2019-02-11T06:19:01.610Z,22.00
2019-02-11T06:21:30.953Z,18.87
2019-02-11T06:24:00.056Z,32.60
2019-02-11T06:26:29.072Z,20.00
2019-02-11T06:28:58.082Z,20.50
2019-02-11T06:31:27.097Z,20.37
2019-02-11T06:33:56.117Z,19.27
2019-02-11T06:36:25.099Z,24.20
2019-02-11T06:38:53.963Z,16.20
2019-02-11T06:41:23.232Z,27.53
2019-02-11T06:43:52.287Z,24.50
2019-02-11T06:46:21.341Z,23.10
2019-02-11T06:48:50.415Z,22.33
2019-02-11T06:51:19.657Z,22.27
2019-02-11T06:53:48.675Z,21.40
2019-02-11T06:56:17.742Z,28.20
2019-02-11T06:58:46.762Z,20.97
2019-02-11T07:01:15.828Z,25.33
2019-02-11T07:03:44.849Z,21.77
2019-02-11T07:06:13.873Z,26.47
2019-02-11T07:08:42.849Z,23.07
2019-02-11T07:11:11.878Z,23.47
2019-02-11T07:13:40.829Z,26.30
2019-02-11T07:16:09.868Z,25.63
2019-02-11T07:18:38.910Z,25.00
2019-02-11T07:21:07.966Z,28.60
2019-02-11T07:23:36.947Z,24.07
2019-02-11T07:26:06.012Z,16.17
2019-02-11T07:28:34.986Z,18.97
2019-02-11T07:31:04.123Z,25.80
2019-02-11T07:33:34.165Z,18.00
2019-02-11T07:36:03.114Z,23.67
2019-02-11T07:38:32.508Z,16.13
2019-02-11T07:41:01.624Z,20.83
2019-02-11T07:43:37.874Z,29.10
2019-02-11T07:46:15.194Z,27.50
2019-02-11T07:48:44.234Z,17.17
2019-02-11T07:51:13.289Z,19.33
2019-02-11T07:53:42.296Z,20.93
2019-02-11T07:56:11.366Z,19.63
2019-02-11T07:58:40.746Z,21.40
2019-02-11T08:01:09.800Z,28.50
2019-02-11T08:03:38.717Z,14.90
2019-02-11T08:06:09.055Z,23.23
2019-02-11T08:08:38.478Z,20.90
2019-02-11T08:11:07.537Z,18.27
2019-02-11T08:13:36.552Z,22.40
2019-02-11T08:16:05.596Z,25.57
2019-02-11T08:18:34.610Z,30.47
2019-02-11T08:21:03.787Z,23.83
2019-02-11T08:23:32.796Z,20.07
2019-02-11T08:26:01.856Z,19.33
2019-02-11T08:28:31.674Z,23.17
2019-02-11T08:31:00.727Z,19.87
2019-02-11T08:33:30.533Z,23.93
2019-02-11T08:35:59.530Z,23.70
2019-02-11T08:38:28.540Z,23.40
2019-02-11T08:40:57.875Z,22.40
2019-02-11T08:43:26.859Z,30.00
2019-02-11T08:45:55.913Z,12.23
2019-02-11T08:48:24.922Z,14.40
2019-02-11T08:50:54.005Z,15.03
2019-02-11T08:53:22.954Z,13.40
2019-02-11T08:55:51.928Z,19.50
2019-02-11T08:58:20.994Z,19.50
2019-02-11T09:00:50.281Z,13.87
2019-02-11T09:03:19.332Z,12.97
2019-02-11T09:05:48.465Z,21.13
2019-02-11T09:08:17.872Z,8.80
2019-02-11T09:10:47.216Z,13.60
2019-02-11T09:13:16.561Z,12.23
2019-02-11T09:15:45.609Z,26.07
2019-02-11T09:18:14.617Z,10.83
2019-02-11T09:20:43.679Z,8.90
2019-02-11T09:23:12.941Z,15.47
2019-02-11T09:25:41.959Z,11.67
2019-02-11T09:28:11.013Z,14.57
2019-02-11T09:30:40.049Z,11.63
2019-02-11T09:33:09.100Z,18.73
2019-02-11T09:35:38.382Z,8.50
2019-02-11T09:38:07.421Z,11.27
2019-02-11T09:40:36.458Z,8.87
2019-02-11T09:43:05.454Z,8.77
2019-02-11T09:45:34.833Z,9.37
2019-02-11T09:48:03.846Z,16.73
2019-02-11T09:50:44.271Z,9.47
2019-02-11T09:53:13.320Z,10.03
2019-02-11T09:55:42.344Z,13.90
2019-02-11T09:58:11.409Z,11.43
2019-02-11T10:00:40.423Z,9.00
2019-02-11T10:03:09.495Z,10.17
2019-02-11T10:05:39.125Z,8.50
2019-02-11T10:08:08.143Z,9.83
2019-02-11T10:10:37.186Z,7.57
2019-02-11T10:13:06.243Z,8.90
2019-02-11T10:15:35.255Z,7.43
2019-02-11T10:18:04.289Z,6.20
2019-02-11T10:20:33.268Z,6.97
2019-02-11T10:23:02.743Z,6.17
2019-02-11T10:25:31.796Z,6.63
2019-02-11T10:28:03.796Z,6.70
2019-02-11T10:30:33.887Z,6.47
2019-02-11T10:33:02.826Z,6.60
2019-02-11T10:35:32.247Z,6.60
2019-02-11T10:38:01.256Z,6.27
2019-02-11T10:40:30.259Z,7.17
2019-02-11T10:42:59.585Z,7.93
2019-02-11T10:45:36.241Z,6.83
2019-02-11T10:47:59.374Z,8.47
2019-02-11T10:50:28.385Z,6.10
2019-02-11T10:52:57.470Z,6.13
2019-02-11T10:55:26.471Z,5.43
2019-02-11T10:57:55.499Z,7.10
2019-02-11T11:00:24.655Z,9.90
2019-02-11T11:02:53.837Z,12.40
2019-02-11T11:05:22.869Z,8.53
2019-02-11T11:07:51.907Z,11.73
2019-02-11T11:10:23.650Z,7.60
2019-02-11T11:12:52.686Z,9.20
2019-02-11T11:15:21.691Z,8.33
2019-02-11T11:17:50.731Z,10.83
2019-02-11T11:20:19.945Z,10.50
2019-02-11T11:22:49.095Z,8.97
2019-02-11T11:25:18.799Z,7.60
2019-02-11T11:27:47.817Z,11.13
2019-02-11T11:30:17.088Z,11.13
2019-02-11T11:32:46.541Z,11.47
2019-02-11T11:35:16.043Z,9.50
2019-02-11T11:37:45.125Z,7.67
2019-02-11T11:40:16.068Z,10.57
2019-02-11T11:42:45.001Z,7.60
2019-02-11T11:45:16.134Z,7.30
2019-02-11T11:47:45.188Z,9.50
2019-02-11T11:50:15.076Z,7.33
2019-02-11T11:52:44.219Z,6.00
2019-02-11T11:55:14.134Z,5.97
2019-02-11T11:57:43.210Z,14.03
2019-02-11T12:00:20.551Z,6.30
2019-02-11T12:03:00.733Z,6.90
2019-02-11T12:05:20.466Z,9.90
2019-02-11T12:07:49.481Z,13.87
2019-02-11T12:10:18.601Z,5.50
2019-02-11T12:12:48.036Z,7.67
2019-02-11T12:15:18.819Z,5.50
2019-02-11T12:17:48.342Z,7.07
2019-02-11T12:20:17.360Z,6.20
2019-02-11T12:22:46.418Z,6.93
2019-02-11T12:25:15.972Z,6.33
2019-02-11T12:27:44.997Z,6.10
2019-02-11T12:30:16.565Z,7.90
2019-02-11T12:32:45.611Z,7.17
2019-02-11T12:35:15.003Z,7.03
2019-02-11T12:37:44.079Z,10.17
2019-02-11T12:40:13.212Z,8.80
2019-02-11T12:42:42.445Z,6.17
2019-02-11T12:45:16.639Z,8.53
2019-02-11T12:47:45.675Z,8.37
2019-02-11T12:50:15.811Z,13.40
2019-02-11T12:52:44.848Z,7.50
2019-02-11T12:55:14.462Z,7.20
2019-02-11T12:57:43.526Z,6.23
2019-02-11T13:00:18.270Z,6.80
2019-02-11T13:02:47.853Z,6.70
2019-02-11T13:05:21.509Z,7.70
2019-02-11T13:07:47.617Z,9.80
2019-02-11T13:10:17.890Z,6.00
2019-02-11T13:12:46.992Z,6.33
2019-02-11T13:15:41.961Z,5.00
2019-02-11T13:17:47.151Z,5.60
2019-02-11T13:20:16.317Z,5.57
2019-02-11T13:22:45.312Z,5.07
2019-02-11T13:25:14.832Z,5.00
2019-02-11T13:27:43.893Z,6.00
2019-02-11T13:30:15.440Z,6.10
2019-02-11T13:32:44.443Z,8.10
2019-02-11T13:35:13.602Z,8.40
2019-02-11T13:37:42.838Z,10.37
2019-02-11T13:40:11.959Z,6.40
2019-02-11T13:42:40.997Z,7.53
2019-02-11T13:45:14.885Z,6.03
2019-02-11T13:47:53.595Z,9.50
2019-02-11T13:50:17.414Z,7.10
2019-02-11T13:52:46.768Z,8.10
2019-02-11T13:55:15.838Z,8.53
2019-02-11T13:57:44.872Z,15.60
2019-02-11T14:00:26.403Z,7.53
2019-02-11T14:02:56.587Z,11.73
2019-02-11T14:05:26.083Z,13.43
2019-02-11T14:07:55.583Z,6.53
2019-02-11T14:10:24.633Z,7.03
2019-02-11T14:12:53.645Z,10.93
2019-02-11T14:15:22.653Z,13.03
2019-02-11T14:18:09.284Z,7.27
2019-02-11T14:20:24.393Z,10.50
2019-02-11T14:22:53.423Z,6.40
2019-02-11T14:25:40.969Z,10.53
2019-02-11T14:27:53.449Z,12.67
2019-02-11T14:30:22.525Z,9.53
2019-02-11T14:32:51.658Z,12.37
2019-02-11T14:35:20.695Z,13.17
2019-02-11T14:37:49.940Z,7.30
2019-02-11T14:40:19.249Z,13.03
2019-02-11T14:42:48.350Z,10.53
2019-02-11T14:45:17.571Z,8.80
2019-02-11T14:47:46.576Z,10.20
2019-02-11T14:50:15.630Z,9.63
2019-02-11T14:52:44.705Z,10.10
2019-02-11T14:55:13.727Z,10.17
2019-02-11T14:57:42.803Z,10.47
2019-02-11T15:00:17.652Z,11.00
2019-02-11T15:02:46.733Z,13.73
2019-02-11T15:05:15.954Z,12.40
2019-02-11T15:07:45.285Z,9.50
2019-02-11T15:10:14.695Z,8.50
2019-02-11T15:12:43.767Z,6.87
2019-02-11T15:15:12.965Z,20.47
2019-02-11T15:17:42.346Z,15.23
2019-02-11T15:20:12.818Z,11.70
2019-02-11T15:22:41.823Z,9.83
2019-02-11T15:25:12.957Z,13.60
2019-02-11T15:27:42.257Z,11.40
2019-02-11T15:30:13.655Z,9.03
2019-02-11T15:32:42.712Z,13.20
2019-02-11T15:35:11.786Z,7.73
2019-02-11T15:37:40.802Z,7.23
2019-02-11T15:40:13.046Z,7.43
2019-02-11T15:42:42.047Z,7.27
2019-02-11T15:45:12.504Z,10.07
2019-02-11T15:47:41.520Z,7.97
2019-02-11T15:50:11.755Z,9.40
2019-02-11T15:52:41.201Z,8.70
2019-02-11T15:55:13.078Z,11.43
2019-02-11T15:57:42.092Z,12.70
2019-02-11T16:00:13.827Z,10.30
2019-02-11T16:02:42.865Z,12.63
2019-02-11T16:05:15.792Z,12.77
2019-02-11T16:07:42.662Z,9.93
2019-02-11T16:10:13.583Z,17.53
2019-02-11T16:12:42.606Z,9.43
2019-02-11T16:15:11.821Z,10.70
2019-02-11T16:17:40.882Z,12.13
2019-02-11T16:20:10.149Z,16.90
2019-02-11T16:22:39.177Z,7.40
2019-02-11T16:25:10.103Z,8.87
2019-02-11T16:27:39.108Z,7.03
2019-02-11T16:30:10.494Z,7.83
2019-02-11T16:32:39.809Z,7.20
2019-02-11T16:35:09.967Z,7.80
2019-02-11T16:37:39.334Z,7.97
2019-02-11T16:40:10.967Z,10.03
2019-02-11T16:42:39.936Z,13.77
2019-02-11T16:45:09.888Z,9.37
2019-02-11T16:47:38.932Z,7.00
2019-02-11T16:50:08.177Z,6.00
2019-02-11T16:52:37.241Z,7.00
2019-02-11T16:55:06.463Z,6.97
2019-02-11T16:57:35.512Z,12.00
2019-02-11T17:00:04.973Z,5.97
2019-02-11T17:02:34.017Z,13.10
2019-02-11T17:05:03.460Z,8.70
2019-02-11T17:07:32.556Z,7.20
2019-02-11T17:10:01.561Z,6.57
2019-02-11T17:12:30.615Z,8.53
2019-02-11T17:14:59.961Z,9.20
2019-02-11T17:17:29.008Z,11.80
2019-02-11T17:19:58.039Z,8.67
2019-02-11T17:22:27.088Z,11.40
2019-02-11T17:24:56.096Z,6.73
2019-02-11T17:27:25.069Z,10.37
2019-02-11T17:29:54.363Z,9.63
2019-02-11T17:32:23.378Z,13.03
2019-02-11T17:34:52.357Z,12.23
2019-02-11T17:37:21.373Z,7.13
2019-02-11T17:39:50.384Z,9.03
2019-02-11T17:42:19.446Z,13.73
2019-02-11T17:44:48.381Z,16.60
2019-02-11T17:47:17.436Z,7.70
2019-02-11T17:49:46.494Z,7.50
2019-02-11T17:52:15.795Z,19.80
2019-02-11T17:54:45.128Z,14.43
2019-02-11T17:57:14.192Z,13.57
2019-02-11T17:59:43.235Z,19.70
2019-02-11T18:02:14.661Z,9.97
2019-02-11T18:04:43.906Z,10.43
2019-02-11T18:07:12.985Z,12.27
2019-02-11T18:09:42.033Z,18.17
2019-02-11T18:12:11.086Z,12.93
2019-02-11T18:14:40.092Z,14.53
2019-02-11T18:17:09.079Z,12.27
2019-02-11T18:19:38.129Z,11.33
2019-02-11T18:22:07.165Z,11.97
2019-02-11T18:24:36.219Z,11.47
2019-02-11T18:27:05.235Z,15.40
2019-02-11T18:29:34.289Z,10.57
2019-02-11T18:32:03.345Z,13.20
2019-02-11T18:34:32.389Z,13.73
2019-02-11T18:37:01.437Z,10.87
2019-02-11T18:39:30.521Z,10.07
2019-02-11T18:41:59.520Z,13.90
2019-02-11T18:44:28.622Z,9.83
2019-02-11T18:46:57.628Z,10.40
2019-02-11T18:49:34.202Z,9.30
2019-02-11T18:51:57.441Z,11.37
2019-02-11T18:54:26.389Z,10.63
2019-02-11T18:56:55.467Z,9.70
2019-02-11T18:59:25.051Z,15.23
2019-02-11T19:01:54.155Z,10.57
2019-02-11T19:04:23.189Z,17.60
2019-02-11T19:06:52.232Z,9.97
2019-02-11T19:09:21.624Z,15.50
2019-02-11T19:11:50.676Z,19.17
2019-02-11T19:14:19.617Z,10.70
2019-02-11T19:16:48.771Z,9.40
2019-02-11T19:19:17.793Z,13.17
2019-02-11T19:21:46.965Z,10.60
2019-02-11T19:24:15.953Z,19.77
2019-02-11T19:26:44.894Z,10.03
2019-02-11T19:29:13.949Z,10.47
2019-02-11T19:31:42.982Z,16.33
2019-02-11T19:34:12.051Z,10.87
2019-02-11T19:36:41.056Z,14.03
2019-02-11T19:39:11.288Z,12.30
2019-02-11T19:41:40.340Z,13.13
2019-02-11T19:44:09.279Z,12.33
2019-02-11T19:46:38.329Z,13.83
2019-02-11T19:49:07.410Z,13.17
2019-02-11T19:51:36.441Z,11.80
2019-02-11T19:54:05.440Z,9.20
2019-02-11T19:56:34.492Z,10.73
2019-02-11T19:59:03.536Z,10.57
2019-02-11T20:01:32.610Z,15.23
2019-02-11T20:04:07.296Z,9.90
2019-02-11T20:06:33.187Z,10.40
2019-02-11T20:09:02.355Z,17.50
2019-02-11T20:11:31.370Z,12.50
2019-02-11T20:14:00.815Z,11.43
2019-02-11T20:16:29.772Z,15.53
2019-02-11T20:18:58.833Z,13.93
2019-02-11T20:21:27.911Z,16.53
2019-02-11T20:23:56.968Z,11.73
2019-02-11T20:26:25.959Z,9.47
2019-02-11T20:28:55.266Z,13.10
2019-02-11T20:31:24.287Z,15.63
2019-02-11T20:33:53.330Z,10.20
2019-02-11T20:36:22.401Z,9.77
2019-02-11T20:38:51.433Z,15.23
2019-02-11T20:41:20.447Z,10.03
2019-02-11T20:43:49.536Z,9.63
2019-02-11T20:46:18.546Z,9.67
2019-02-11T20:48:47.590Z,10.10
2019-02-11T20:51:16.714Z,15.10
2019-02-11T20:53:47.435Z,11.83
2019-02-11T20:56:16.537Z,11.90
2019-02-11T20:58:45.578Z,9.00
2019-02-11T21:01:14.627Z,11.33
2019-02-11T21:03:43.674Z,10.13
2019-02-11T21:06:12.690Z,12.13
2019-02-11T21:08:42.010Z,11.53
2019-02-11T21:11:12.556Z,10.07
2019-02-11T21:13:41.767Z,10.83
2019-02-11T21:16:10.792Z,14.07
2019-02-11T21:18:39.840Z,9.33
2019-02-11T21:21:08.879Z,10.10
2019-02-11T21:23:37.941Z,19.77
2019-02-11T21:26:08.678Z,9.73
2019-02-11T21:28:38.442Z,16.10
2019-02-11T21:31:07.470Z,13.67
2019-02-11T21:33:36.506Z,9.27
2019-02-11T21:36:05.551Z,15.27
2019-02-11T21:38:34.557Z,12.97
2019-02-11T21:41:05.483Z,10.40
2019-02-11T21:43:34.502Z,12.33
2019-02-11T21:46:03.565Z,10.03
2019-02-11T21:48:32.574Z,23.13
2019-02-11T21:51:01.660Z,10.60
2019-02-11T21:53:30.708Z,10.90
2019-02-11T21:56:00.776Z,11.60
2019-02-11T21:58:29.850Z,17.40
2019-02-11T22:01:02.451Z,15.60
2019-02-11T22:03:30.415Z,12.77
2019-02-11T22:05:59.410Z,11.03
2019-02-11T22:08:28.463Z,11.70
2019-02-11T22:10:57.529Z,11.70
2019-02-11T22:13:26.544Z,15.47
2019-02-11T22:15:55.602Z,13.03
2019-02-11T22:18:24.630Z,11.80
2019-02-11T22:20:54.006Z,15.70
2019-02-11T22:23:23.081Z,15.33
2019-02-11T22:25:52.137Z,15.20
2019-02-11T22:28:21.186Z,12.70
2019-02-11T22:30:50.231Z,17.10
2019-02-11T22:33:19.326Z,15.03
2019-02-11T22:35:48.339Z,21.00
2019-02-11T22:38:17.420Z,11.07
2019-02-11T22:40:46.470Z,9.90
2019-02-11T22:43:15.485Z,10.83
2019-02-11T22:45:44.522Z,10.30
2019-02-11T22:48:13.589Z,10.27
2019-02-11T22:50:43.426Z,10.40
2019-02-11T22:53:12.514Z,10.60
2019-02-11T22:55:41.582Z,10.67
2019-02-11T22:58:10.593Z,11.00
2019-02-11T23:00:46.000Z,12.10
2019-02-11T23:03:15.350Z,11.03
2019-02-11T23:05:44.777Z,11.93
2019-02-11T23:08:14.008Z,12.40
2019-02-11T23:10:43.079Z,12.40
2019-02-11T23:13:12.104Z,13.80
2019-02-11T23:15:41.110Z,22.63
2019-02-11T23:18:10.158Z,12.93
2019-02-11T23:20:39.215Z,15.43
2019-02-11T23:23:08.265Z,13.00
2019-02-11T23:25:37.281Z,11.90
2019-02-11T23:28:06.335Z,11.90
2019-02-11T23:30:35.432Z,11.80
2019-02-11T23:33:04.468Z,11.20
2019-02-11T23:35:33.491Z,19.53
2019-02-11T23:38:02.576Z,15.20
2019-02-11T23:40:31.585Z,12.57
2019-02-11T23:43:00.605Z,12.27
2019-02-11T23:45:29.672Z,11.27
2019-02-11T23:47:58.991Z,12.13
2019-02-11T23:50:28.053Z,12.07
2019-02-11T23:52:57.103Z,11.70
2019-02-11T23:55:26.160Z,17.17
2019-02-11T23:57:55.177Z,11.40
